sensor_id;sensor_type;location;lat;lon;timestamp;pressure;altitude;pressure_sealevel;temperature
71897;BMP280;59767;51.344;12.362;2023-06-10T00:02:58;163869.44;;;20.13
71897;BMP280;59767;51.344;12.362;2023-06-10T00:06:04;163864.19;;;20.11
71897;BMP280;59767;51.344;12.362;2023-06-10T00:09:10;163848.41;;;20.05
71897;BMP280;59767;51.344;12.362;2023-06-10T00:12:14;163830.03;;;19.98
71897;BMP280;59767;51.344;12.362;2023-06-10T00:15:21;163815.53;;;19.93
71897;BMP280;59767;51.344;12.362;2023-06-10T00:18:25;163803.72;;;19.88
71897;BMP280;59767;51.344;12.362;2023-06-10T00:21:31;163776.19;;;19.78
71897;BMP280;59767;51.344;12.362;2023-06-10T00:24:41;163764.38;;;19.73
71897;BMP280;59767;51.344;12.362;2023-06-10T00:27:45;163749.88;;;19.68
71897;BMP280;59767;51.344;12.362;2023-06-10T00:30:49;163732.84;;;19.61
71897;BMP280;59767;51.344;12.362;2023-06-10T00:33:54;163711.81;;;19.53
71897;BMP280;59767;51.344;12.362;2023-06-10T00:36:58;163690.78;;;19.45
71897;BMP280;59767;51.344;12.362;2023-06-10T00:40:03;163689.53;;;19.45
71897;BMP280;59767;51.344;12.362;2023-06-10T00:43:08;163665.88;;;19.36
71897;BMP280;59767;51.344;12.362;2023-06-10T00:46:12;163639.63;;;19.26
71897;BMP280;59767;51.344;12.362;2023-06-10T00:49:17;163622.53;;;19.20
71897;BMP280;59767;51.344;12.362;2023-06-10T00:52:24;163619.91;;;19.19
71897;BMP280;59767;51.344;12.362;2023-06-10T00:55:32;163612.00;;;19.16
71897;BMP280;59767;51.344;12.362;2023-06-10T00:58:36;163592.31;;;19.08
71897;BMP280;59767;51.344;12.362;2023-06-10T01:01:41;163569.97;;;19.00
71897;BMP280;59767;51.344;12.362;2023-06-10T01:04:47;163545.03;;;18.90
71897;BMP280;59767;51.344;12.362;2023-06-10T01:08:03;163529.28;;;18.84
71897;BMP280;59767;51.344;12.362;2023-06-10T01:11:15;163521.41;;;18.81
71897;BMP280;59767;51.344;12.362;2023-06-10T01:14:22;163526.72;;;18.83
71897;BMP280;59767;51.344;12.362;2023-06-10T01:17:27;163503.09;;;18.74
71897;BMP280;59767;51.344;12.362;2023-06-10T01:20:32;163503.09;;;18.74
71897;BMP280;59767;51.344;12.362;2023-06-10T01:23:36;163510.94;;;18.77
71897;BMP280;59767;51.344;12.362;2023-06-10T01:26:42;163513.56;;;18.78
71897;BMP280;59767;51.344;12.362;2023-06-10T01:29:50;163493.84;;;18.71
71897;BMP280;59767;51.344;12.362;2023-06-10T01:32:59;163478.13;;;18.65
71897;BMP280;59767;51.344;12.362;2023-06-10T01:36:05;163467.63;;;18.61
71897;BMP280;59767;51.344;12.362;2023-06-10T01:39:10;163451.84;;;18.55
71897;BMP280;59767;51.344;12.362;2023-06-10T01:42:15;163445.28;;;18.52
71897;BMP280;59767;51.344;12.362;2023-06-10T01:45:19;163442.66;;;18.51
71897;BMP280;59767;51.344;12.362;2023-06-10T01:48:24;163436.09;;;18.49
71897;BMP280;59767;51.344;12.362;2023-06-10T01:51:28;163428.25;;;18.46
71897;BMP280;59767;51.344;12.362;2023-06-10T01:54:34;163416.38;;;18.41
71897;BMP280;59767;51.344;12.362;2023-06-10T01:57:38;163401.97;;;18.36
71897;BMP280;59767;51.344;12.362;2023-06-10T02:00:42;163375.69;;;18.26
71897;BMP280;59767;51.344;12.362;2023-06-10T02:03:46;163375.69;;;18.26
71897;BMP280;59767;51.344;12.362;2023-06-10T02:06:51;163350.75;;;18.16
71897;BMP280;59767;51.344;12.362;2023-06-10T02:09:55;163341.56;;;18.13
71897;BMP280;59767;51.344;12.362;2023-06-10T02:12:59;163342.91;;;18.13
71897;BMP280;59767;51.344;12.362;2023-06-10T02:16:04;163315.34;;;18.03
71897;BMP280;59767;51.344;12.362;2023-06-10T02:19:09;163302.19;;;17.98
71897;BMP280;59767;51.344;12.362;2023-06-10T02:22:14;163291.69;;;17.94
71897;BMP280;59767;51.344;12.362;2023-06-10T02:25:18;163298.31;;;17.96
71897;BMP280;59767;51.344;12.362;2023-06-10T02:28:22;163286.50;;;17.92
71897;BMP280;59767;51.344;12.362;2023-06-10T02:31:26;163298.31;;;17.96
71897;BMP280;59767;51.344;12.362;2023-06-10T02:34:30;163296.97;;;17.96
71897;BMP280;59767;51.344;12.362;2023-06-10T02:37:34;163273.38;;;17.87
71897;BMP280;59767;51.344;12.362;2023-06-10T02:40:39;163278.53;;;17.89
71897;BMP280;59767;51.344;12.362;2023-06-10T02:43:43;163274.66;;;17.87
71897;BMP280;59767;51.344;12.362;2023-06-10T02:46:47;163281.22;;;17.90
71897;BMP280;59767;51.344;12.362;2023-06-10T02:49:51;163274.66;;;17.87
71897;BMP280;59767;51.344;12.362;2023-06-10T02:52:56;163268.06;;;17.85
71897;BMP280;59767;51.344;12.362;2023-06-10T02:56:00;163247.09;;;17.77
71897;BMP280;59767;51.344;12.362;2023-06-10T02:59:04;163236.63;;;17.73
71897;BMP280;59767;51.344;12.362;2023-06-10T03:02:10;163241.81;;;17.75
71897;BMP280;59767;51.344;12.362;2023-06-10T03:05:15;163223.50;;;17.68
71897;BMP280;59767;51.344;12.362;2023-06-10T03:08:20;163209.03;;;17.62
71897;BMP280;59767;51.344;12.362;2023-06-10T03:11:25;163197.22;;;17.58
71897;BMP280;59767;51.344;12.362;2023-06-10T03:14:29;163191.94;;;17.56
71897;BMP280;59767;51.344;12.362;2023-06-10T03:17:33;163178.81;;;17.51
71897;BMP280;59767;51.344;12.362;2023-06-10T03:20:37;163173.63;;;17.49
71897;BMP280;59767;51.344;12.362;2023-06-10T03:23:43;163164.41;;;17.45
71897;BMP280;59767;51.344;12.362;2023-06-10T03:26:47;163142.09;;;17.37
71897;BMP280;59767;51.344;12.362;2023-06-10T03:29:51;163136.91;;;17.35
71897;BMP280;59767;51.344;12.362;2023-06-10T03:32:55;163121.09;;;17.29
71897;BMP280;59767;51.344;12.362;2023-06-10T03:35:59;163113.22;;;17.26
71897;BMP280;59767;51.344;12.362;2023-06-10T03:39:03;163114.53;;;17.26
71897;BMP280;59767;51.344;12.362;2023-06-10T03:42:08;163115.88;;;17.27
71897;BMP280;59767;51.344;12.362;2023-06-10T03:45:12;163123.78;;;17.30
71897;BMP280;59767;51.344;12.362;2023-06-10T03:48:16;163121.09;;;17.29
71897;BMP280;59767;51.344;12.362;2023-06-10T03:51:23;163109.31;;;17.24
71897;BMP280;59767;51.344;12.362;2023-06-10T03:54:27;163110.63;;;17.25
71897;BMP280;59767;51.344;12.362;2023-06-10T03:57:31;163107.97;;;17.24
71897;BMP280;59767;51.344;12.362;2023-06-10T04:00:35;163119.81;;;17.28
71897;BMP280;59767;51.344;12.362;2023-06-10T04:03:45;163104.03;;;17.22
71897;BMP280;59767;51.344;12.362;2023-06-10T04:06:49;163106.69;;;17.23
71897;BMP280;59767;51.344;12.362;2023-06-10T04:09:54;163109.31;;;17.24
71897;BMP280;59767;51.344;12.362;2023-06-10T04:12:58;163105.34;;;17.23
71897;BMP280;59767;51.344;12.362;2023-06-10T04:16:02;163084.38;;;17.15
71897;BMP280;59767;51.344;12.362;2023-06-10T04:19:07;163077.81;;;17.12
71897;BMP280;59767;51.344;12.362;2023-06-10T04:22:11;163066.03;;;17.08
71897;BMP280;59767;51.344;12.362;2023-06-10T04:25:15;163066.03;;;17.08
71897;BMP280;59767;51.344;12.362;2023-06-10T04:28:20;163064.69;;;17.07
71897;BMP280;59767;51.344;12.362;2023-06-10T04:31:24;163071.25;;;17.10
71897;BMP280;59767;51.344;12.362;2023-06-10T04:34:28;163075.16;;;17.11
71897;BMP280;59767;51.344;12.362;2023-06-10T04:37:32;163076.47;;;17.12
71897;BMP280;59767;51.344;12.362;2023-06-10T04:40:36;163055.50;;;17.04
71897;BMP280;59767;51.344;12.362;2023-06-10T04:43:40;163035.81;;;16.96
71897;BMP280;59767;51.344;12.362;2023-06-10T04:46:44;163049.00;;;17.01
71897;BMP280;59767;51.344;12.362;2023-06-10T04:49:49;163068.63;;;17.09
71897;BMP280;59767;51.344;12.362;2023-06-10T04:52:53;163075.16;;;17.11
71897;BMP280;59767;51.344;12.362;2023-06-10T04:55:57;163084.38;;;17.15
71897;BMP280;59767;51.344;12.362;2023-06-10T04:59:01;163101.41;;;17.21
71897;BMP280;59767;51.344;12.362;2023-06-10T05:02:05;163121.09;;;17.29
71897;BMP280;59767;51.344;12.362;2023-06-10T05:05:10;163123.78;;;17.30
71897;BMP280;59767;51.344;12.362;2023-06-10T05:08:15;163131.63;;;17.33
71897;BMP280;59767;51.344;12.362;2023-06-10T05:11:19;163100.06;;;17.21
71897;BMP280;59767;51.344;12.362;2023-06-10T05:14:24;163090.94;;;17.17
71897;BMP280;59767;51.344;12.362;2023-06-10T05:17:28;163105.34;;;17.23
71897;BMP280;59767;51.344;12.362;2023-06-10T05:20:32;163088.28;;;17.16
71897;BMP280;59767;51.344;12.362;2023-06-10T05:23:36;163110.63;;;17.25
71897;BMP280;59767;51.344;12.362;2023-06-10T05:26:40;163131.63;;;17.33
71897;BMP280;59767;51.344;12.362;2023-06-10T05:29:45;163160.50;;;17.44
71897;BMP280;59767;51.344;12.362;2023-06-10T05:32:49;163142.09;;;17.37
71897;BMP280;59767;51.344;12.362;2023-06-10T05:35:55;163159.16;;;17.43
71897;BMP280;59767;51.344;12.362;2023-06-10T05:38:59;163180.13;;;17.51
71897;BMP280;59767;51.344;12.362;2023-06-10T05:42:05;163186.75;;;17.54
71897;BMP280;59767;51.344;12.362;2023-06-10T05:45:10;163195.91;;;17.57
71897;BMP280;59767;51.344;12.362;2023-06-10T05:48:14;163216.88;;;17.65
71897;BMP280;59767;51.344;12.362;2023-06-10T05:51:19;163233.97;;;17.72
71897;BMP280;59767;51.344;12.362;2023-06-10T05:54:23;163253.59;;;17.79
71897;BMP280;59767;51.344;12.362;2023-06-10T05:57:27;163282.53;;;17.90
71897;BMP280;59767;51.344;12.362;2023-06-10T06:00:31;163294.34;;;17.95
71897;BMP280;59767;51.344;12.362;2023-06-10T06:03:35;163315.34;;;18.03
71897;BMP280;59767;51.344;12.362;2023-06-10T06:06:39;163333.72;;;18.10
71897;BMP280;59767;51.344;12.362;2023-06-10T06:09:44;163361.31;;;18.20
71897;BMP280;59767;51.344;12.362;2023-06-10T06:12:48;163386.22;;;18.30
71897;BMP280;59767;51.344;12.362;2023-06-10T06:15:52;163384.94;;;18.29
71897;BMP280;59767;51.344;12.362;2023-06-10T06:18:57;163420.34;;;18.43
71897;BMP280;59767;51.344;12.362;2023-06-10T06:22:01;163440.06;;;18.50
71897;BMP280;59767;51.344;12.362;2023-06-10T06:25:07;163457.16;;;18.57
71897;BMP280;59767;51.344;12.362;2023-06-10T06:28:12;163475.47;;;18.64
71897;BMP280;59767;51.344;12.362;2023-06-10T06:31:16;163542.41;;;18.89
71897;BMP280;59767;51.344;12.362;2023-06-10T06:34:20;163573.94;;;19.01
71897;BMP280;59767;51.344;12.362;2023-06-10T06:37:24;163630.41;;;19.23
71897;BMP280;59767;51.344;12.362;2023-06-10T06:40:29;163673.78;;;19.39
71897;BMP280;59767;51.344;12.362;2023-06-10T06:43:33;163678.97;;;19.41
71897;BMP280;59767;51.344;12.362;2023-06-10T06:46:37;163698.72;;;19.49
71897;BMP280;59767;51.344;12.362;2023-06-10T06:49:42;163738.06;;;19.63
71897;BMP280;59767;51.344;12.362;2023-06-10T06:52:46;163782.72;;;19.80
71897;BMP280;59767;51.344;12.362;2023-06-10T06:55:51;163839.22;;;20.02
71897;BMP280;59767;51.344;12.362;2023-06-10T06:58:54;163873.41;;;20.15
71897;BMP280;59767;51.344;12.362;2023-06-10T07:02:00;163883.88;;;20.19
71897;BMP280;59767;51.344;12.362;2023-06-10T07:05:04;163900.94;;;20.25
71897;BMP280;59767;51.344;12.362;2023-06-10T07:08:10;163922.00;;;20.33
71897;BMP280;59767;51.344;12.362;2023-06-10T07:11:15;163973.25;;;20.53
71897;BMP280;59767;51.344;12.362;2023-06-10T07:14:21;164004.75;;;20.65
71897;BMP280;59767;51.344;12.362;2023-06-10T07:17:25;164041.50;;;20.79
71897;BMP280;59767;51.344;12.362;2023-06-10T07:20:30;164119.06;;;21.08
71897;BMP280;59767;51.344;12.362;2023-06-10T07:23:34;164208.38;;;21.42
71897;BMP280;59767;51.344;12.362;2023-06-10T07:26:38;164366.13;;;22.02
71897;BMP280;59767;51.344;12.362;2023-06-10T07:29:42;164610.69;;;22.95
71897;BMP280;59767;51.344;12.362;2023-06-10T07:32:46;164775.03;;;23.57
71897;BMP280;59767;51.344;12.362;2023-06-10T07:35:51;165093.38;;;24.78
71897;BMP280;59767;51.344;12.362;2023-06-10T07:38:55;165234.16;;;25.31
71897;BMP280;59767;51.344;12.362;2023-06-10T07:41:59;165049.94;;;24.62
71897;BMP280;59767;51.344;12.362;2023-06-10T07:45:04;164886.81;;;24.00
71897;BMP280;59767;51.344;12.362;2023-06-10T07:48:08;164881.56;;;23.98
71897;BMP280;59767;51.344;12.362;2023-06-10T07:51:14;165144.69;;;24.97
71897;BMP280;59767;51.344;12.362;2023-06-10T07:54:18;165589.53;;;26.66
71897;BMP280;59767;51.344;12.362;2023-06-10T07:57:22;156220.75;;;28.85
71897;BMP280;59767;51.344;12.362;2023-06-10T08:00:26;145242.25;;;29.59
71897;BMP280;59767;51.344;12.362;2023-06-10T08:03:30;131893.34;;;30.56
71897;BMP280;59767;51.344;12.362;2023-06-10T08:06:34;140565.63;;;29.92
71897;BMP280;59767;51.344;12.362;2023-06-10T08:09:40;129895.41;;;30.72
71897;BMP280;59767;51.344;12.362;2023-06-10T08:12:44;122571.06;;;31.30
71897;BMP280;59767;51.344;12.362;2023-06-10T08:15:48;133890.59;;;30.40
71897;BMP280;59767;51.344;12.362;2023-06-10T08:18:54;138562.84;;;30.06
71897;BMP280;59767;51.344;12.362;2023-06-10T08:21:59;134227.19;;;30.39
71897;BMP280;59767;51.344;12.362;2023-06-10T08:25:03;136225.91;;;30.23
71897;BMP280;59767;51.344;12.362;2023-06-10T08:28:07;131893.34;;;30.56
71897;BMP280;59767;51.344;12.362;2023-06-10T08:31:11;128227.00;;;30.84
71897;BMP280;59767;51.344;12.362;2023-06-10T08:34:15;129229.81;;;30.78
71897;BMP280;59767;51.344;12.362;2023-06-10T08:37:19;121566.22;;;31.34
71897;BMP280;59767;51.344;12.362;2023-06-10T08:40:24;129227.78;;;30.77
71897;BMP280;59767;51.344;12.362;2023-06-10T08:43:36;137559.94;;;30.13
71897;BMP280;59767;51.344;12.362;2023-06-10T08:46:41;137229.66;;;30.17
71897;BMP280;59767;51.344;12.362;2023-06-10T08:49:47;135567.38;;;30.32
71897;BMP280;59767;51.344;12.362;2023-06-10T08:52:54;130563.03;;;30.68
71897;BMP280;59767;51.344;12.362;2023-06-10T08:56:00;140235.25;;;29.96
71897;BMP280;59767;51.344;12.362;2023-06-10T08:59:07;143913.91;;;29.72
71897;BMP280;59767;51.344;12.362;2023-06-10T09:02:14;148590.25;;;29.38
71897;BMP280;59767;51.344;12.362;2023-06-10T09:05:19;146581.03;;;29.51
71897;BMP280;59767;51.344;12.362;2023-06-10T09:08:23;147918.94;;;29.42
71897;BMP280;59767;51.344;12.362;2023-06-10T09:11:28;149933.13;;;29.31
71897;BMP280;59767;51.344;12.362;2023-06-10T09:14:31;161431.19;;;28.54
71897;BMP280;59767;51.344;12.362;2023-06-10T09:17:36;165266.63;;;28.12
71897;BMP280;59767;51.344;12.362;2023-06-10T09:20:42;165833.09;;;27.58
71897;BMP280;59767;51.344;12.362;2023-06-10T09:23:47;165729.09;;;27.19
71897;BMP280;59767;51.344;12.362;2023-06-10T09:27:08;165760.66;;;27.31
71897;BMP280;59767;51.344;12.362;2023-06-10T09:30:27;165663.22;;;26.94
71897;BMP280;59767;51.344;12.362;2023-06-10T09:33:31;165692.22;;;27.05
71897;BMP280;59767;51.344;12.362;2023-06-10T09:36:36;165676.38;;;26.99
71897;BMP280;59767;51.344;12.362;2023-06-10T09:39:42;165751.44;;;27.27
71897;BMP280;59767;51.344;12.362;2023-06-10T09:42:52;165801.47;;;27.46
71897;BMP280;59767;51.344;12.362;2023-06-10T09:45:58;165794.94;;;27.44
71897;BMP280;59767;51.344;12.362;2023-06-10T09:49:03;165768.56;;;27.34
71897;BMP280;59767;51.344;12.362;2023-06-10T09:52:07;165734.31;;;27.21
71897;BMP280;59767;51.344;12.362;2023-06-10T09:55:12;165660.59;;;26.93
71897;BMP280;59767;51.344;12.362;2023-06-10T09:58:16;165655.34;;;26.91
71897;BMP280;59767;51.344;12.362;2023-06-10T10:01:20;165642.19;;;26.86
71897;BMP280;59767;51.344;12.362;2023-06-10T10:04:25;165573.75;;;26.60
71897;BMP280;59767;51.344;12.362;2023-06-10T10:07:29;165598.75;;;26.70
71897;BMP280;59767;51.344;12.362;2023-06-10T10:10:33;165600.03;;;26.70
71897;BMP280;59767;51.344;12.362;2023-06-10T10:13:38;165607.97;;;26.73
71897;BMP280;59767;51.344;12.362;2023-06-10T10:16:44;165531.59;;;26.44
71897;BMP280;59767;51.344;12.362;2023-06-10T10:19:58;165513.16;;;26.37
71897;BMP280;59767;51.344;12.362;2023-06-10T10:23:04;165571.06;;;26.59
71897;BMP280;59767;51.344;12.362;2023-06-10T10:26:10;165515.81;;;26.38
71897;BMP280;59767;51.344;12.362;2023-06-10T10:29:33;165573.75;;;26.60
71897;BMP280;59767;51.344;12.362;2023-06-10T10:32:52;165563.16;;;26.56
71897;BMP280;59767;51.344;12.362;2023-06-10T10:36:00;165540.84;;;26.48
71897;BMP280;59767;51.344;12.362;2023-06-10T10:39:04;165526.34;;;26.42
71897;BMP280;59767;51.344;12.362;2023-06-10T10:42:08;165557.97;;;26.54
71897;BMP280;59767;51.344;12.362;2023-06-10T10:45:14;165638.22;;;26.84
71897;BMP280;59767;51.344;12.362;2023-06-10T10:48:19;165660.59;;;26.93
71897;BMP280;59767;51.344;12.362;2023-06-10T10:51:23;165613.19;;;26.75
71897;BMP280;59767;51.344;12.362;2023-06-10T10:54:32;165592.16;;;26.67
71897;BMP280;59767;51.344;12.362;2023-06-10T10:57:38;165630.31;;;26.81
71897;BMP280;59767;51.344;12.362;2023-06-10T11:00:44;165652.69;;;26.90
71897;BMP280;59767;51.344;12.362;2023-06-10T11:03:49;165665.91;;;26.95
71897;BMP280;59767;51.344;12.362;2023-06-10T11:06:54;165708.06;;;27.11
71897;BMP280;59767;51.344;12.362;2023-06-10T11:10:06;165734.31;;;27.21
71897;BMP280;59767;51.344;12.362;2023-06-10T11:13:15;165793.59;;;27.43
71897;BMP280;59767;51.344;12.362;2023-06-10T11:16:19;165848.91;;;27.64
71897;BMP280;59767;51.344;12.362;2023-06-10T11:19:37;165889.72;;;27.80
71897;BMP280;59767;51.344;12.362;2023-06-10T11:23:01;165879.19;;;27.76
71897;BMP280;59767;51.344;12.362;2023-06-10T11:26:30;165215.94;;;28.14
71897;BMP280;59767;51.344;12.362;2023-06-10T11:29:39;164937.28;;;28.19
71897;BMP280;59767;51.344;12.362;2023-06-10T11:32:43;165914.75;;;27.89
71897;BMP280;59767;51.344;12.362;2023-06-10T11:35:48;165782.34;;;28.06
71897;BMP280;59767;51.344;12.362;2023-06-10T11:38:57;164217.63;;;28.28
71897;BMP280;59767;51.344;12.362;2023-06-10T11:42:01;165938.44;;;27.98
71897;BMP280;59767;51.344;12.362;2023-06-10T11:45:06;165870.00;;;27.72
71897;BMP280;59767;51.344;12.362;2023-06-10T11:48:12;165800.13;;;27.46
71897;BMP280;59767;51.344;12.362;2023-06-10T11:51:17;165737.00;;;27.22
71897;BMP280;59767;51.344;12.362;2023-06-10T11:54:21;165785.69;;;27.40
71897;BMP280;59767;51.344;12.362;2023-06-10T11:57:25;165823.88;;;27.55
71897;BMP280;59767;51.344;12.362;2023-06-10T12:00:30;165896.28;;;27.82
71897;BMP280;59767;51.344;12.362;2023-06-10T12:03:37;165945.03;;;28.01
71897;BMP280;59767;51.344;12.362;2023-06-10T12:06:50;165363.81;;;28.13
71897;BMP280;59767;51.344;12.362;2023-06-10T12:10:00;165913.41;;;27.89
71897;BMP280;59767;51.344;12.362;2023-06-10T12:13:22;165856.78;;;27.67
71897;BMP280;59767;51.344;12.362;2023-06-10T12:16:27;165790.97;;;27.42
71897;BMP280;59767;51.344;12.362;2023-06-10T12:19:38;165672.47;;;26.97
71897;BMP280;59767;51.344;12.362;2023-06-10T12:22:44;165635.56;;;26.83
71897;BMP280;59767;51.344;12.362;2023-06-10T12:25:53;165639.53;;;26.85
71897;BMP280;59767;51.344;12.362;2023-06-10T12:28:57;165689.59;;;27.04
71897;BMP280;59767;51.344;12.362;2023-06-10T12:32:03;165788.31;;;27.41
71897;BMP280;59767;51.344;12.362;2023-06-10T12:35:15;165879.19;;;27.76
71897;BMP280;59767;51.344;12.362;2023-06-10T12:38:22;165431.88;;;28.10
71897;BMP280;59767;51.344;12.362;2023-06-10T12:41:28;163277.97;;;28.38
71897;BMP280;59767;51.344;12.362;2023-06-10T12:44:34;162954.28;;;28.39
71897;BMP280;59767;51.344;12.362;2023-06-10T12:47:38;165929.25;;;27.95
71897;BMP280;59767;51.344;12.362;2023-06-10T12:50:44;165851.53;;;27.65
71897;BMP280;59767;51.344;12.362;2023-06-10T12:53:48;165750.09;;;27.27
71897;BMP280;59767;51.344;12.362;2023-06-10T12:56:52;165619.78;;;26.77
71897;BMP280;59767;51.344;12.362;2023-06-10T12:59:56;165478.91;;;26.24
71897;BMP280;59767;51.344;12.362;2023-06-10T13:03:09;165371.00;;;25.83
71897;BMP280;59767;51.344;12.362;2023-06-10T13:06:13;165293.38;;;25.54
71897;BMP280;59767;51.344;12.362;2023-06-10T13:09:17;165192.06;;;25.15
71897;BMP280;59767;51.344;12.362;2023-06-10T13:12:21;165101.25;;;24.81
71897;BMP280;59767;51.344;12.362;2023-06-10T13:15:36;165036.75;;;24.57
71897;BMP280;59767;51.344;12.362;2023-06-10T13:18:46;165015.75;;;24.49
71897;BMP280;59767;51.344;12.362;2023-06-10T13:21:51;164999.94;;;24.43
71897;BMP280;59767;51.344;12.362;2023-06-10T13:24:56;165031.56;;;24.55
71897;BMP280;59767;51.344;12.362;2023-06-10T13:27:59;165073.66;;;24.71
71897;BMP280;59767;51.344;12.362;2023-06-10T13:31:03;165131.56;;;24.92
71897;BMP280;59767;51.344;12.362;2023-06-10T13:34:08;165160.47;;;25.03
71897;BMP280;59767;51.344;12.362;2023-06-10T13:37:12;165161.75;;;25.04
71897;BMP280;59767;51.344;12.362;2023-06-10T13:40:16;165152.59;;;25.00
71897;BMP280;59767;51.344;12.362;2023-06-10T13:43:23;165152.59;;;25.00
71897;BMP280;59767;51.344;12.362;2023-06-10T13:46:27;165205.19;;;25.20
71897;BMP280;59767;51.344;12.362;2023-06-10T13:49:31;165264.41;;;25.43
71897;BMP280;59767;51.344;12.362;2023-06-10T13:52:35;165260.50;;;25.41
71897;BMP280;59767;51.344;12.362;2023-06-10T13:55:39;165338.13;;;25.71
71897;BMP280;59767;51.344;12.362;2023-06-10T13:58:43;165363.13;;;25.80
71897;BMP280;59767;51.344;12.362;2023-06-10T14:01:48;165392.09;;;25.91
71897;BMP280;59767;51.344;12.362;2023-06-10T14:04:52;165371.00;;;25.83
71897;BMP280;59767;51.344;12.362;2023-06-10T14:07:56;165422.34;;;26.03
71897;BMP280;59767;51.344;12.362;2023-06-10T14:11:00;165418.38;;;26.01
71897;BMP280;59767;51.344;12.362;2023-06-10T14:14:08;165403.88;;;25.96
71897;BMP280;59767;51.344;12.362;2023-06-10T14:17:12;165421.00;;;26.02
71897;BMP280;59767;51.344;12.362;2023-06-10T14:20:16;165423.69;;;26.03
71897;BMP280;59767;51.344;12.362;2023-06-10T14:23:21;165455.25;;;26.15
71897;BMP280;59767;51.344;12.362;2023-06-10T14:26:25;165489.47;;;26.28
71897;BMP280;59767;51.344;12.362;2023-06-10T14:29:30;165490.81;;;26.29
71897;BMP280;59767;51.344;12.362;2023-06-10T14:32:35;165473.69;;;26.22
71897;BMP280;59767;51.344;12.362;2023-06-10T14:35:39;165453.91;;;26.15
71897;BMP280;59767;51.344;12.362;2023-06-10T14:38:43;165473.69;;;26.22
71897;BMP280;59767;51.344;12.362;2023-06-10T14:41:47;165489.47;;;26.28
71897;BMP280;59767;51.344;12.362;2023-06-10T14:44:51;165497.38;;;26.31
71897;BMP280;59767;51.344;12.362;2023-06-10T14:47:55;165492.09;;;26.29
71897;BMP280;59767;51.344;12.362;2023-06-10T14:51:00;165496.03;;;26.31
71897;BMP280;59767;51.344;12.362;2023-06-10T14:54:04;165405.22;;;25.96
71897;BMP280;59767;51.344;12.362;2023-06-10T14:57:08;165336.81;;;25.70
71897;BMP280;59767;51.344;12.362;2023-06-10T15:00:13;165280.22;;;25.49
71897;BMP280;59767;51.344;12.362;2023-06-10T15:03:19;165210.50;;;25.22
71897;BMP280;59767;51.344;12.362;2023-06-10T15:06:23;165189.44;;;25.14
71897;BMP280;59767;51.344;12.362;2023-06-10T15:09:27;165142.03;;;24.96
71897;BMP280;59767;51.344;12.362;2023-06-10T15:12:31;165102.59;;;24.82
71897;BMP280;59767;51.344;12.362;2023-06-10T15:15:35;165067.06;;;24.68
71897;BMP280;59767;51.344;12.362;2023-06-10T15:18:39;165039.44;;;24.58
71897;BMP280;59767;51.344;12.362;2023-06-10T15:21:43;165015.75;;;24.49
71897;BMP280;59767;51.344;12.362;2023-06-10T15:24:47;165006.53;;;24.45
71897;BMP280;59767;51.344;12.362;2023-06-10T15:27:51;164988.13;;;24.38
71897;BMP280;59767;51.344;12.362;2023-06-10T15:30:56;165003.91;;;24.44
71897;BMP280;59767;51.344;12.362;2023-06-10T15:33:59;165023.69;;;24.52
71897;BMP280;59767;51.344;12.362;2023-06-10T15:37:04;165059.16;;;24.65
71897;BMP280;59767;51.344;12.362;2023-06-10T15:40:08;165082.81;;;24.74
71897;BMP280;59767;51.344;12.362;2023-06-10T15:43:12;165126.25;;;24.90
71897;BMP280;59767;51.344;12.362;2023-06-10T15:46:17;165136.75;;;24.94
71897;BMP280;59767;51.344;12.362;2023-06-10T15:49:21;165155.22;;;25.01
71897;BMP280;59767;51.344;12.362;2023-06-10T15:52:25;165163.09;;;25.04
71897;BMP280;59767;51.344;12.362;2023-06-10T15:55:30;165195.97;;;25.17
71897;BMP280;59767;51.344;12.362;2023-06-10T15:58:34;165184.16;;;25.12
71897;BMP280;59767;51.344;12.362;2023-06-10T16:01:38;165205.19;;;25.20
71897;BMP280;59767;51.344;12.362;2023-06-10T16:04:42;165222.31;;;25.27
71897;BMP280;59767;51.344;12.362;2023-06-10T16:07:46;165226.28;;;25.28
71897;BMP280;59767;51.344;12.362;2023-06-10T16:10:51;165252.59;;;25.38
71897;BMP280;59767;51.344;12.362;2023-06-10T16:13:56;165272.28;;;25.46
71897;BMP280;59767;51.344;12.362;2023-06-10T16:16:59;165277.59;;;25.48
71897;BMP280;59767;51.344;12.362;2023-06-10T16:20:05;165305.22;;;25.58
71897;BMP280;59767;51.344;12.362;2023-06-10T16:23:09;165282.81;;;25.50
71897;BMP280;59767;51.344;12.362;2023-06-10T16:26:14;165296.00;;;25.55
71897;BMP280;59767;51.344;12.362;2023-06-10T16:29:19;165318.38;;;25.63
71897;BMP280;59767;51.344;12.362;2023-06-10T16:32:23;165319.72;;;25.64
71897;BMP280;59767;51.344;12.362;2023-06-10T16:35:27;165357.84;;;25.78
71897;BMP280;59767;51.344;12.362;2023-06-10T16:38:31;165365.78;;;25.81
71897;BMP280;59767;51.344;12.362;2023-06-10T16:41:35;165378.88;;;25.86
71897;BMP280;59767;51.344;12.362;2023-06-10T16:44:39;165393.38;;;25.92
71897;BMP280;59767;51.344;12.362;2023-06-10T16:47:43;165422.34;;;26.03
71897;BMP280;59767;51.344;12.362;2023-06-10T16:50:48;165413.13;;;25.99
71897;BMP280;59767;51.344;12.362;2023-06-10T16:53:52;165393.38;;;25.92
71897;BMP280;59767;51.344;12.362;2023-06-10T16:56:56;165367.03;;;25.82
71897;BMP280;59767;51.344;12.362;2023-06-10T17:00:01;165343.38;;;25.73
71897;BMP280;59767;51.344;12.362;2023-06-10T17:03:05;165342.03;;;25.72
71897;BMP280;59767;51.344;12.362;2023-06-10T17:06:09;165371.00;;;25.83
71897;BMP280;59767;51.344;12.362;2023-06-10T17:09:14;165355.22;;;25.77
71897;BMP280;59767;51.344;12.362;2023-06-10T17:12:18;165365.78;;;25.81
71897;BMP280;59767;51.344;12.362;2023-06-10T17:15:24;165357.84;;;25.78
71897;BMP280;59767;51.344;12.362;2023-06-10T17:18:29;165323.69;;;25.65